createdAt,value
2023-05-23T00:00:25.307Z,4.03
2023-05-23T00:02:57.150Z,2.30
2023-05-23T00:05:33.134Z,4.67
2023-05-23T00:08:12.639Z,5.80
2023-05-23T00:10:43.759Z,6.23
2023-05-23T00:16:26.639Z,5.40
2023-05-23T00:19:20.148Z,3.57
2023-05-23T00:21:54.537Z,9.00
2023-05-23T00:25:07.386Z,5.93
2023-05-23T00:31:32.156Z,3.53
2023-05-23T00:34:06.585Z,6.13
2023-05-23T00:36:40.134Z,9.63
2023-05-23T00:39:21.331Z,6.97
2023-05-23T00:42:42.177Z,5.97
2023-05-23T00:49:30.811Z,2.70
2023-05-23T00:52:15.219Z,9.67
2023-05-23T00:54:48.562Z,3.23
2023-05-23T01:01:26.938Z,5.23
2023-05-23T01:07:07.798Z,4.93
2023-05-23T01:09:36.070Z,5.90
2023-05-23T01:13:31.009Z,5.27
2023-05-23T01:16:36.135Z,3.33
2023-05-23T01:20:02.806Z,4.57
2023-05-23T01:23:07.816Z,4.60
2023-05-23T01:26:23.098Z,4.67
2023-05-23T01:29:12.367Z,4.30
2023-05-23T01:31:50.569Z,3.67
2023-05-23T01:37:28.339Z,5.00
2023-05-23T01:43:30.447Z,5.07
2023-05-23T01:46:35.065Z,4.23
2023-05-23T01:49:27.451Z,3.80
2023-05-23T01:52:13.543Z,4.93
2023-05-23T01:54:49.917Z,8.03
2023-05-23T01:57:54.134Z,5.13
2023-05-23T02:00:27.979Z,6.43
2023-05-23T02:02:55.631Z,4.97
2023-05-23T02:05:23.395Z,7.67
2023-05-23T02:07:50.772Z,5.03
2023-05-23T02:10:19.399Z,10.33
2023-05-23T02:12:47.422Z,7.67
2023-05-23T02:15:17.777Z,8.17
2023-05-23T02:17:45.558Z,5.47
2023-05-23T02:20:19.234Z,5.73
2023-05-23T02:25:35.498Z,5.87
2023-05-23T02:28:27.117Z,8.23
2023-05-23T02:30:57.763Z,8.30
2023-05-23T02:33:25.895Z,6.23
2023-05-23T02:35:56.516Z,5.37
2023-05-23T02:41:16.245Z,7.17
2023-05-23T02:47:24.818Z,8.95
2023-05-23T02:50:15.143Z,7.47
2023-05-23T02:52:57.224Z,4.77
2023-05-23T02:55:26.302Z,4.30
2023-05-23T02:57:59.033Z,6.23
2023-05-23T03:00:34.258Z,5.80
2023-05-23T03:03:05.270Z,8.00
2023-05-23T03:06:20.031Z,8.10
2023-05-23T03:08:56.799Z,5.27
2023-05-23T03:11:40.628Z,5.20
2023-05-23T03:14:14.010Z,4.10
2023-05-23T03:16:41.448Z,9.10
2023-05-23T03:19:10.791Z,7.10
2023-05-23T03:21:38.884Z,3.33
2023-05-23T03:24:06.913Z,10.20
2023-05-23T03:26:39.009Z,8.37
2023-05-23T03:29:06.776Z,13.17
2023-05-23T03:32:14.977Z,10.23
2023-05-23T03:35:36.138Z,11.23
2023-05-23T03:38:03.854Z,6.57
2023-05-23T03:40:31.233Z,4.33
2023-05-23T03:43:07.189Z,8.47
2023-05-23T03:45:35.033Z,4.10
2023-05-23T03:48:03.000Z,6.37
2023-05-23T03:50:30.316Z,4.50
2023-05-23T03:52:57.493Z,6.10
2023-05-23T03:55:25.646Z,5.77
2023-05-23T03:57:53.040Z,7.33
2023-05-23T04:00:20.315Z,9.20
2023-05-23T04:02:47.739Z,6.47
2023-05-23T04:05:15.060Z,7.10
2023-05-23T04:07:43.234Z,7.80
2023-05-23T04:10:11.075Z,9.53
2023-05-23T04:12:41.534Z,9.80
2023-05-23T04:15:10.118Z,12.20
2023-05-23T04:17:39.069Z,8.80
2023-05-23T04:20:10.922Z,15.40
2023-05-23T04:22:38.388Z,9.57
2023-05-23T04:25:06.885Z,5.57
2023-05-23T04:27:40.376Z,4.80
2023-05-23T04:30:11.945Z,7.33
2023-05-23T04:32:39.078Z,11.23
2023-05-23T04:35:07.054Z,5.73
2023-05-23T04:37:35.295Z,8.60
2023-05-23T04:40:03.770Z,11.23
2023-05-23T04:42:30.981Z,10.07
2023-05-23T04:44:58.300Z,6.40
2023-05-23T04:47:28.289Z,9.20
2023-05-23T04:49:58.543Z,7.30
2023-05-23T04:52:27.532Z,10.07
2023-05-23T04:55:27.220Z,10.37
2023-05-23T04:57:54.711Z,5.93
2023-05-23T05:00:21.957Z,4.30
2023-05-23T05:02:52.231Z,14.17
2023-05-23T05:05:19.476Z,7.10
2023-05-23T05:07:46.666Z,8.57
2023-05-23T05:10:17.467Z,7.30
2023-05-23T05:12:54.235Z,6.80
2023-05-23T05:15:21.496Z,7.43
2023-05-23T05:17:49.980Z,8.73
2023-05-23T05:20:17.642Z,9.50
2023-05-23T05:22:55.204Z,11.40
2023-05-23T05:25:22.479Z,8.67
2023-05-23T05:27:49.981Z,5.57
2023-05-23T05:30:17.337Z,7.80
2023-05-23T05:32:46.348Z,10.93
2023-05-23T05:35:14.259Z,9.23
2023-05-23T05:37:43.623Z,9.23
2023-05-23T05:40:21.504Z,7.00
2023-05-23T05:42:48.648Z,15.07
2023-05-23T05:45:19.208Z,9.53
2023-05-23T05:47:49.794Z,14.30
2023-05-23T05:50:17.117Z,16.67
2023-05-23T05:52:44.355Z,14.80
2023-05-23T05:55:15.057Z,13.87
2023-05-23T05:57:42.535Z,11.50
2023-05-23T06:00:19.268Z,8.37
2023-05-23T06:02:57.604Z,9.30
2023-05-23T06:05:26.802Z,8.20
2023-05-23T06:07:56.524Z,7.40
2023-05-23T06:10:24.648Z,7.13
2023-05-23T06:12:51.844Z,6.30
2023-05-23T06:15:19.652Z,6.03
2023-05-23T06:17:47.650Z,8.63
2023-05-23T06:20:14.839Z,13.17
2023-05-23T06:22:45.172Z,12.23
2023-05-23T06:25:12.492Z,13.40
2023-05-23T06:27:40.549Z,14.48
2023-05-23T06:30:08.918Z,15.00
2023-05-23T06:32:40.862Z,10.97
2023-05-23T06:35:08.755Z,10.47
2023-05-23T06:37:43.609Z,17.92
2023-05-23T06:40:14.774Z,8.05
2023-05-23T06:42:42.442Z,13.18
2023-05-23T06:45:16.855Z,12.45
2023-05-23T06:47:45.635Z,8.18
2023-05-23T06:50:13.152Z,9.02
2023-05-23T06:52:42.672Z,6.82
2023-05-23T06:55:10.391Z,10.73
2023-05-23T06:57:52.274Z,12.88
2023-05-23T07:00:26.409Z,9.07
2023-05-23T07:02:57.395Z,10.60
2023-05-23T07:05:24.766Z,7.78
2023-05-23T07:07:55.392Z,9.77
2023-05-23T07:10:23.091Z,13.68
2023-05-23T07:12:50.914Z,9.55
2023-05-23T07:15:18.143Z,11.27
2023-05-23T07:17:45.489Z,9.77
2023-05-23T07:20:12.870Z,12.05
2023-05-23T07:22:43.154Z,13.15
2023-05-23T07:25:10.845Z,15.63
2023-05-23T07:27:38.813Z,14.90
2023-05-23T07:30:09.532Z,11.48
2023-05-23T07:32:37.158Z,10.55
2023-05-23T07:35:06.299Z,10.75
2023-05-23T07:37:33.976Z,12.02
2023-05-23T07:40:01.748Z,11.13
2023-05-23T07:42:28.841Z,10.02
2023-05-23T07:44:59.613Z,8.75
2023-05-23T07:47:28.218Z,14.32
2023-05-23T07:49:55.558Z,14.55
2023-05-23T07:52:22.721Z,11.15
2023-05-23T07:54:49.989Z,12.82
2023-05-23T07:57:19.740Z,9.18
2023-05-23T07:59:47.369Z,9.95
2023-05-23T08:02:14.752Z,8.38
2023-05-23T08:04:57.109Z,9.05
2023-05-23T08:07:55.328Z,13.68
2023-05-23T08:10:28.256Z,15.32
2023-05-23T08:13:20.151Z,9.70
2023-05-23T08:15:47.585Z,11.15
2023-05-23T08:18:15.092Z,26.15
2023-05-23T08:20:45.459Z,11.48
2023-05-23T08:23:21.667Z,9.32
2023-05-23T08:25:49.059Z,12.15
2023-05-23T08:28:16.237Z,5.95
2023-05-23T08:30:46.913Z,22.80
2023-05-23T08:33:21.944Z,7.18
2023-05-23T08:35:49.319Z,8.10
2023-05-23T08:38:22.807Z,9.73
2023-05-23T08:40:59.704Z,16.50
2023-05-23T08:43:35.744Z,6.47
2023-05-23T08:46:05.289Z,10.68
2023-05-23T08:48:37.722Z,10.63
2023-05-23T08:51:09.949Z,11.07
2023-05-23T08:53:38.725Z,9.80
2023-05-23T08:56:06.913Z,8.98
2023-05-23T08:58:47.835Z,10.57
2023-05-23T09:01:18.609Z,9.63
2023-05-23T09:03:46.016Z,8.55
2023-05-23T09:06:13.284Z,8.27
2023-05-23T09:08:40.499Z,10.90
2023-05-23T09:11:08.837Z,6.95
2023-05-23T09:13:35.979Z,9.30
2023-05-23T09:16:06.243Z,10.50
2023-05-23T09:18:44.916Z,6.15
2023-05-23T09:21:13.545Z,4.82
2023-05-23T09:23:41.841Z,7.75
2023-05-23T09:26:13.432Z,6.78
2023-05-23T09:28:48.798Z,13.43
2023-05-23T09:31:16.277Z,10.40
2023-05-23T09:33:52.838Z,6.75
2023-05-23T09:36:21.163Z,8.63
2023-05-23T09:39:15.439Z,12.63
2023-05-23T09:41:48.401Z,11.77
2023-05-23T09:44:22.509Z,4.97
2023-05-23T09:46:56.693Z,8.43
2023-05-23T09:49:32.325Z,7.00
2023-05-23T09:52:02.455Z,7.10
2023-05-23T09:54:30.298Z,7.18
2023-05-23T09:57:02.786Z,8.27
2023-05-23T09:59:35.137Z,10.18
2023-05-23T10:02:19.908Z,8.38
2023-05-23T10:04:49.883Z,6.93
2023-05-23T10:07:23.411Z,11.13
2023-05-23T10:10:11.418Z,10.55
2023-05-23T10:12:54.642Z,8.25
2023-05-23T10:15:26.247Z,5.40
2023-05-23T10:18:09.584Z,6.68
2023-05-23T10:20:39.443Z,6.35
2023-05-23T10:23:22.423Z,9.52
2023-05-23T10:25:50.633Z,12.85
2023-05-23T10:28:18.392Z,10.20
2023-05-23T10:30:53.689Z,6.90
2023-05-23T10:33:22.593Z,8.70
2023-05-23T10:36:31.080Z,7.88
2023-05-23T10:39:36.815Z,8.02
2023-05-23T10:43:04.858Z,6.75
2023-05-23T10:45:42.799Z,7.10
2023-05-23T10:48:28.419Z,7.57
2023-05-23T10:51:12.838Z,14.15
2023-05-23T10:53:53.320Z,8.20
2023-05-23T10:56:31.782Z,11.93
2023-05-23T10:58:58.875Z,4.90
2023-05-23T11:01:39.177Z,9.38
2023-05-23T11:04:07.708Z,8.02
2023-05-23T11:07:05.142Z,6.18
2023-05-23T11:10:07.378Z,7.05
2023-05-23T11:12:52.720Z,7.60
2023-05-23T11:15:21.066Z,6.00
2023-05-23T11:17:57.293Z,8.55
2023-05-23T11:20:31.255Z,11.10
2023-05-23T11:23:10.045Z,6.47
2023-05-23T11:25:53.757Z,10.52
2023-05-23T11:28:24.364Z,8.68
2023-05-23T11:30:52.576Z,8.68
2023-05-23T11:33:21.115Z,9.18
2023-05-23T11:35:51.783Z,7.13
2023-05-23T11:38:28.323Z,6.13
2023-05-23T11:40:55.836Z,11.52
2023-05-23T11:43:36.219Z,10.75
2023-05-23T11:46:09.676Z,7.95
2023-05-23T11:48:36.814Z,6.38
2023-05-23T11:51:04.956Z,8.63
2023-05-23T11:53:32.211Z,11.90
2023-05-23T11:56:02.483Z,5.70
2023-05-23T11:58:34.980Z,8.25
2023-05-23T12:01:10.276Z,7.03
2023-05-23T12:03:54.234Z,6.70
2023-05-23T12:06:25.035Z,6.50
2023-05-23T12:08:53.476Z,7.80
2023-05-23T12:11:22.800Z,17.33
2023-05-23T12:13:53.020Z,6.32
2023-05-23T12:16:21.159Z,10.30
2023-05-23T12:18:48.831Z,8.75
2023-05-23T12:21:16.120Z,7.75
2023-05-23T12:23:44.560Z,6.68
2023-05-23T12:26:11.718Z,9.38
2023-05-23T12:28:46.708Z,10.40
2023-05-23T12:31:22.717Z,11.88
2023-05-23T12:33:53.975Z,11.77
2023-05-23T12:36:32.356Z,15.50
2023-05-23T12:39:04.897Z,11.48
2023-05-23T12:41:33.893Z,12.77
2023-05-23T12:44:02.555Z,12.38
2023-05-23T12:46:29.830Z,12.35
2023-05-23T12:48:57.254Z,15.20
2023-05-23T12:51:24.376Z,17.85
2023-05-23T12:53:53.908Z,19.90
2023-05-23T12:56:22.528Z,21.35
2023-05-23T12:58:55.845Z,18.63
2023-05-23T13:01:23.787Z,21.60
2023-05-23T13:03:51.213Z,24.98
2023-05-23T13:06:19.047Z,21.80
2023-05-23T13:08:46.944Z,25.10
2023-05-23T13:11:14.429Z,18.73
2023-05-23T13:13:44.499Z,16.63
2023-05-23T13:16:26.485Z,19.33
2023-05-23T13:19:09.261Z,16.75
2023-05-23T13:21:37.012Z,23.35
2023-05-23T13:24:04.606Z,19.63
2023-05-23T13:26:37.657Z,27.20
2023-05-23T13:29:11.783Z,18.33
2023-05-23T13:31:39.332Z,17.27
2023-05-23T13:34:06.936Z,17.10
2023-05-23T13:36:35.808Z,20.45
2023-05-23T13:39:06.996Z,19.48
2023-05-23T13:41:36.868Z,22.52
2023-05-23T13:44:04.174Z,20.88
2023-05-23T13:46:34.447Z,21.67
2023-05-23T13:49:02.980Z,17.88
2023-05-23T13:51:32.137Z,21.27
2023-05-23T13:53:59.467Z,18.63
2023-05-23T13:56:26.683Z,19.95
2023-05-23T13:58:58.306Z,20.35
2023-05-23T14:01:25.629Z,19.55
2023-05-23T14:03:53.508Z,25.10
2023-05-23T14:06:20.941Z,26.23
2023-05-23T14:08:58.065Z,26.88
2023-05-23T14:11:25.894Z,23.65
2023-05-23T14:13:59.205Z,28.20
2023-05-23T14:16:32.258Z,20.67
2023-05-23T14:19:02.578Z,20.35
2023-05-23T14:21:30.147Z,24.80
2023-05-23T14:23:57.331Z,32.15
2023-05-23T14:26:33.748Z,21.20
2023-05-23T14:29:04.027Z,21.35
2023-05-23T14:31:32.317Z,21.38
2023-05-23T14:34:00.065Z,17.83
2023-05-23T14:36:28.825Z,18.38
2023-05-23T14:38:56.329Z,22.92
2023-05-23T14:41:23.466Z,17.70
2023-05-23T14:43:53.659Z,20.27
2023-05-23T14:46:22.874Z,20.10
2023-05-23T14:48:53.651Z,17.23
2023-05-23T14:51:41.787Z,16.85
2023-05-23T14:54:09.485Z,15.30
2023-05-23T14:56:41.989Z,15.02
2023-05-23T14:59:11.803Z,15.18
2023-05-23T15:01:41.280Z,17.65
2023-05-23T15:04:11.804Z,15.50
2023-05-23T15:06:40.372Z,15.77
2023-05-23T15:09:09.358Z,13.15
2023-05-23T15:11:38.922Z,14.25
2023-05-23T15:14:06.662Z,14.18
2023-05-23T15:16:40.019Z,12.57
2023-05-23T15:19:07.433Z,9.27
2023-05-23T15:21:37.036Z,6.60
2023-05-23T15:24:06.056Z,6.57
2023-05-23T15:26:33.152Z,8.40
2023-05-23T15:29:00.359Z,5.47
2023-05-23T15:31:28.066Z,6.88
2023-05-23T15:33:56.562Z,3.73
2023-05-23T15:36:23.931Z,9.13
2023-05-23T15:38:52.617Z,6.57
2023-05-23T15:41:19.939Z,8.07
2023-05-23T15:43:51.933Z,6.20
2023-05-23T15:46:25.152Z,6.07
2023-05-23T15:49:07.515Z,5.67
2023-05-23T15:51:40.922Z,6.97
2023-05-23T15:54:40.368Z,4.63
2023-05-23T15:57:36.903Z,3.57
2023-05-23T16:00:04.915Z,3.37
2023-05-23T16:05:22.700Z,5.13
2023-05-23T16:07:53.471Z,5.17
2023-05-23T16:10:24.557Z,4.67
2023-05-23T16:12:51.883Z,4.17
2023-05-23T16:15:20.117Z,4.03
2023-05-23T16:17:49.945Z,9.20
2023-05-23T16:20:17.315Z,7.40
2023-05-23T16:22:54.071Z,3.70
2023-05-23T16:25:21.303Z,3.07
2023-05-23T16:27:48.425Z,3.10
2023-05-23T16:30:19.616Z,2.50
2023-05-23T16:32:47.073Z,2.77
2023-05-23T16:35:14.374Z,2.23
2023-05-23T16:37:52.673Z,6.67
2023-05-23T16:40:19.981Z,4.20
2023-05-23T16:42:50.137Z,2.90
2023-05-23T16:45:17.965Z,3.33
2023-05-23T16:47:52.506Z,3.27
2023-05-23T16:50:20.055Z,3.23
2023-05-23T16:52:47.185Z,4.83
2023-05-23T16:55:16.314Z,4.37
2023-05-23T16:57:43.848Z,6.37
2023-05-23T17:00:12.547Z,7.00
2023-05-23T17:02:40.036Z,9.03
2023-05-23T17:05:07.880Z,7.20
2023-05-23T17:07:35.022Z,7.43
2023-05-23T17:10:05.003Z,11.03
2023-05-23T17:12:32.875Z,8.33
2023-05-23T17:15:00.284Z,7.20
2023-05-23T17:17:27.537Z,6.90
2023-05-23T17:19:57.646Z,6.10
2023-05-23T17:22:24.809Z,8.70
2023-05-23T17:24:54.879Z,9.17
2023-05-23T17:27:24.344Z,5.37
2023-05-23T17:29:51.540Z,5.23
2023-05-23T17:32:20.025Z,3.63
2023-05-23T17:34:47.248Z,4.03
2023-05-23T17:37:18.177Z,1.57
2023-05-23T17:39:45.808Z,3.90
2023-05-23T17:42:13.208Z,2.60
2023-05-23T17:44:40.328Z,7.33
2023-05-23T17:47:07.864Z,4.10
2023-05-23T17:49:35.928Z,4.20
2023-05-23T17:52:05.783Z,4.00
2023-05-23T17:54:33.402Z,3.53
2023-05-23T17:57:04.864Z,6.03
2023-05-23T17:59:32.855Z,2.97
2023-05-23T18:02:00.867Z,7.13
2023-05-23T18:04:28.849Z,6.37
2023-05-23T18:06:55.979Z,7.07
2023-05-23T18:09:23.543Z,7.00
2023-05-23T18:11:51.256Z,10.77
2023-05-23T18:14:21.708Z,7.10
2023-05-23T18:16:49.518Z,7.73
2023-05-23T18:19:17.441Z,7.47
2023-05-23T18:21:44.604Z,7.97
2023-05-23T18:24:12.013Z,8.17
2023-05-23T18:26:42.447Z,11.03
2023-05-23T18:29:12.687Z,9.87
2023-05-23T18:31:40.586Z,10.87
2023-05-23T18:34:07.759Z,9.27
2023-05-23T18:36:35.175Z,11.03
2023-05-23T18:39:02.571Z,10.13
2023-05-23T18:43:58.361Z,7.17
2023-05-23T18:46:25.721Z,15.00
2023-05-23T18:48:53.348Z,9.90
2023-05-23T18:51:20.958Z,9.53
2023-05-23T18:53:48.152Z,11.80
2023-05-23T18:56:15.827Z,10.30
2023-05-23T18:58:45.341Z,10.43
2023-05-23T19:01:13.839Z,11.17
2023-05-23T19:03:41.328Z,14.07
2023-05-23T19:06:08.722Z,9.23
2023-05-23T19:08:36.132Z,11.80
2023-05-23T19:11:03.600Z,7.97
2023-05-23T19:13:30.867Z,12.27
2023-05-23T19:15:58.116Z,7.80
2023-05-23T19:18:25.451Z,11.57
2023-05-23T19:20:53.133Z,15.73
2023-05-23T19:23:20.996Z,14.20
2023-05-23T19:25:48.182Z,11.47
2023-05-23T19:28:15.480Z,10.60
2023-05-23T19:30:43.916Z,8.73
2023-05-23T19:33:11.482Z,8.67
2023-05-23T19:35:38.932Z,10.07
2023-05-23T19:38:06.034Z,9.13
2023-05-23T19:40:33.176Z,9.77
2023-05-23T19:43:00.324Z,10.63
2023-05-23T19:45:28.854Z,10.60
2023-05-23T19:47:58.131Z,10.10
2023-05-23T19:50:25.401Z,11.50
2023-05-23T19:52:52.566Z,11.33
2023-05-23T19:55:19.841Z,8.03
2023-05-23T19:57:47.012Z,10.37
2023-05-23T20:00:15.050Z,12.87
2023-05-23T20:02:42.772Z,8.83
2023-05-23T20:05:13.297Z,10.07
2023-05-23T20:07:40.467Z,11.13
2023-05-23T20:10:08.899Z,9.40
2023-05-23T20:12:36.165Z,9.90
2023-05-23T20:15:04.065Z,13.47
2023-05-23T20:17:31.421Z,10.37
2023-05-23T20:19:59.238Z,10.13
2023-05-23T20:22:27.869Z,13.33
2023-05-23T20:24:55.174Z,8.93
2023-05-23T20:27:22.345Z,15.83
2023-05-23T20:29:51.444Z,8.37
2023-05-23T20:32:18.558Z,12.30
2023-05-23T20:34:46.156Z,8.93
2023-05-23T20:37:13.934Z,14.90
2023-05-23T20:39:44.302Z,13.23
2023-05-23T20:42:11.523Z,13.17
2023-05-23T20:44:39.208Z,10.73
2023-05-23T20:47:12.886Z,13.07
2023-05-23T20:49:44.243Z,11.97
2023-05-23T20:52:11.399Z,11.00
2023-05-23T20:54:38.583Z,13.20
2023-05-23T20:57:05.973Z,7.73
2023-05-23T20:59:33.143Z,9.97
2023-05-23T21:02:00.662Z,15.23
2023-05-23T21:04:27.918Z,12.27
2023-05-23T21:06:55.119Z,11.30
2023-05-23T21:09:22.585Z,11.87
2023-05-23T21:11:49.829Z,12.83
2023-05-23T21:14:17.090Z,11.50
2023-05-23T21:16:44.259Z,12.33
2023-05-23T21:19:11.510Z,10.03
2023-05-23T21:21:38.981Z,11.33
2023-05-23T21:24:06.597Z,10.47
2023-05-23T21:26:33.843Z,10.67
2023-05-23T21:29:01.316Z,18.70
2023-05-23T21:31:40.403Z,12.00
2023-05-23T21:34:22.207Z,16.40
2023-05-23T21:36:51.806Z,16.00
2023-05-23T21:39:19.427Z,17.27
2023-05-23T21:41:47.018Z,14.80
2023-05-23T21:44:15.673Z,15.20
2023-05-23T21:46:42.907Z,15.23
2023-05-23T21:49:10.164Z,13.80
2023-05-23T21:51:37.905Z,16.00
2023-05-23T21:54:05.252Z,12.27
2023-05-23T21:56:32.491Z,16.70
2023-05-23T21:58:59.674Z,16.87
2023-05-23T22:01:27.398Z,15.17
2023-05-23T22:03:54.634Z,14.00
2023-05-23T22:06:22.009Z,15.67
2023-05-23T22:08:49.366Z,11.90
2023-05-23T22:11:16.782Z,16.30
2023-05-23T22:13:44.430Z,15.93
2023-05-23T22:16:11.671Z,12.43
2023-05-23T22:18:50.873Z,15.53
2023-05-23T22:21:20.134Z,10.17
2023-05-23T22:23:47.361Z,17.63
2023-05-23T22:26:14.530Z,15.10
2023-05-23T22:28:41.705Z,11.23
2023-05-23T22:31:11.171Z,9.83
2023-05-23T22:33:43.196Z,14.77
2023-05-23T22:36:10.836Z,21.67
2023-05-23T22:38:38.247Z,15.20
2023-05-23T22:41:05.993Z,9.80
2023-05-23T22:43:33.220Z,13.27
2023-05-23T22:46:00.420Z,16.30
2023-05-23T22:48:28.528Z,9.67
2023-05-23T22:50:56.999Z,16.60
2023-05-23T22:53:24.161Z,13.03
2023-05-23T22:55:51.420Z,13.57
2023-05-23T22:58:18.816Z,16.03
2023-05-23T23:00:46.089Z,9.80
2023-05-23T23:03:15.261Z,10.90
2023-05-23T23:05:42.712Z,14.67
2023-05-23T23:08:09.863Z,9.50
2023-05-23T23:10:37.013Z,13.23
2023-05-23T23:13:04.174Z,13.57
2023-05-23T23:15:33.943Z,8.70
2023-05-23T23:18:01.450Z,21.20
2023-05-23T23:20:28.955Z,14.57
2023-05-23T23:22:57.547Z,11.80
2023-05-23T23:25:24.866Z,16.00
2023-05-23T23:27:52.143Z,13.87
2023-05-23T23:30:19.259Z,14.97
2023-05-23T23:32:49.602Z,15.27
2023-05-23T23:35:16.813Z,6.07
2023-05-23T23:37:44.052Z,12.67
2023-05-23T23:40:12.230Z,12.93
2023-05-23T23:42:39.558Z,13.77
2023-05-23T23:45:07.486Z,12.20
2023-05-23T23:47:34.617Z,22.33
2023-05-23T23:50:01.782Z,14.53
2023-05-23T23:52:29.989Z,20.47
2023-05-23T23:54:57.127Z,16.83
2023-05-23T23:57:24.318Z,16.73
2023-05-23T23:59:51.554Z,15.30
